Time;durP1;ratioP1;P1;durP2;ratioP2;P2;SDS_P1;SDS_P2;PMS_P1;PMS_P2;Temp;Humidity;BMP_temperature;BMP_pressure;BME280_temperature;BME280_humidity;BME280_pressure;Samples;Min_cycle;Max_cycle;Signal;HPM_P1;HPM_P2
2023/05/20 00:00:47;;;;;;;10.48;5.82;;;25.70;57.00;;;;;;5105529;28;20758;-66
2023/05/20 00:03:15;;;;;;;7.55;6.10;;;25.80;57.20;;;;;;5105968;28;20036;-66
2023/05/20 00:05:41;;;;;;;7.63;5.75;;;25.70;57.20;;;;;;5100364;28;20422;-66
2023/05/20 00:08:08;;;;;;;16.65;6.45;;;25.60;57.20;;;;;;5112289;28;20024;-66
2023/05/20 00:10:35;;;;;;;11.23;7.00;;;25.50;57.20;;;;;;5109546;28;20036;-66
2023/05/20 00:13:01;;;;;;;12.18;7.45;;;25.60;57.30;;;;;;5113340;28;20438;-66
2023/05/20 00:15:27;;;;;;;9.70;6.00;;;25.50;57.40;;;;;;5105591;28;20031;-66
2023/05/20 00:17:54;;;;;;;10.07;5.85;;;25.60;57.60;;;;;;5110884;28;20371;-66
2023/05/20 00:20:20;;;;;;;8.98;6.20;;;25.30;57.80;;;;;;5097271;28;20040;-66
2023/05/20 00:22:46;;;;;;;8.35;5.60;;;25.40;57.90;;;;;;5113198;28;20048;-66
2023/05/20 00:25:15;;;;;;;9.70;6.22;;;25.30;58.00;;;;;;5106598;28;20084;-66
2023/05/20 00:27:41;;;;;;;8.48;6.05;;;25.30;58.10;;;;;;5113382;28;20027;-66
2023/05/20 00:30:08;;;;;;;9.48;5.72;;;25.40;58.10;;;;;;5103390;28;20031;-66
2023/05/20 00:32:34;;;;;;;8.23;5.82;;;25.30;58.10;;;;;;5105449;28;20047;-66
2023/05/20 00:35:01;;;;;;;8.55;5.85;;;25.30;58.20;;;;;;5091133;28;20029;-66
2023/05/20 00:37:27;;;;;;;11.60;5.22;;;25.40;58.20;;;;;;5112003;28;20395;-66
2023/05/20 00:39:53;;;;;;;7.97;5.75;;;25.30;58.10;;;;;;5091514;28;20040;-66
2023/05/20 00:42:24;;;;;;;8.52;5.97;;;25.30;58.20;;;;;;5122686;27;20422;-66
2023/05/20 00:44:50;;;;;;;8.75;5.88;;;25.40;58.10;;;;;;5108519;27;20461;-66
2023/05/20 00:47:25;;;;;;;8.27;5.22;;;25.40;58.20;;;;;;5106788;27;20118;-66
2023/05/20 00:49:51;;;;;;;13.15;6.60;;;25.40;58.20;;;;;;5101416;27;20034;-66
2023/05/20 00:52:18;;;;;;;12.43;6.88;;;25.40;58.30;;;;;;5098470;28;20067;-66
2023/05/20 00:54:44;;;;;;;10.20;5.53;;;25.40;58.20;;;;;;5072386;28;20044;-66
2023/05/20 00:57:12;;;;;;;10.73;5.32;;;25.40;58.10;;;;;;5112731;27;20048;-66
2023/05/20 00:59:38;;;;;;;10.02;5.25;;;25.50;58.10;;;;;;5093712;27;20050;-66
2023/05/20 01:02:05;;;;;;;9.15;6.15;;;25.30;58.10;;;;;;5111993;27;20044;-66
2023/05/20 01:04:32;;;;;;;8.00;5.43;;;25.30;58.20;;;;;;5095296;27;20031;-65
2023/05/20 01:07:01;;;;;;;6.28;5.68;;;25.30;58.20;;;;;;5093152;27;20175;-66
2023/05/20 01:09:30;;;;;;;10.20;5.50;;;25.20;58.30;;;;;;5120343;27;20118;-66
2023/05/20 01:12:16;;;;;;;7.63;6.10;;;25.30;58.40;;;;;;5097473;28;20063;-66
2023/05/20 01:14:59;;;;;;;7.18;5.85;;;25.10;58.40;;;;;;5102178;28;20039;-66
2023/05/20 01:17:29;;;;;;;9.15;6.05;;;25.20;58.50;;;;;;5086604;28;20054;-66
2023/05/20 01:19:58;;;;;;;10.63;5.95;;;25.20;58.60;;;;;;5060532;28;20045;-66
2023/05/20 01:22:28;;;;;;;9.23;5.95;;;25.10;58.60;;;;;;5069973;28;20032;-66
2023/05/20 01:24:55;;;;;;;8.98;5.43;;;25.00;58.80;;;;;;5102182;28;20036;-66
2023/05/20 01:27:22;;;;;;;8.25;6.07;;;25.10;58.80;;;;;;5088916;28;20039;-66
2023/05/20 01:29:50;;;;;;;6.93;5.60;;;25.10;58.80;;;;;;5084128;28;20031;-66
2023/05/20 01:32:35;;;;;;;9.20;5.57;;;25.00;58.80;;;;;;5079909;28;20440;-66
2023/05/20 01:35:02;;;;;;;8.68;5.65;;;25.10;58.80;;;;;;5076568;28;20040;-66
2023/05/20 01:37:30;;;;;;;6.75;5.55;;;25.20;58.90;;;;;;5102344;28;20533;-66
2023/05/20 01:39:57;;;;;;;10.05;5.60;;;25.10;58.70;;;;;;5107008;28;20622;-66
2023/05/20 01:42:26;;;;;;;8.32;6.38;;;25.10;58.90;;;;;;5091429;28;20108;-64
2023/05/20 01:44:53;;;;;;;6.43;5.20;;;25.10;58.80;;;;;;5103152;28;20039;-66
2023/05/20 01:47:19;;;;;;;10.68;6.10;;;25.20;58.80;;;;;;5129874;27;20547;-66
2023/05/20 01:49:46;;;;;;;8.18;5.63;;;25.20;58.70;;;;;;5104077;28;20047;-66
2023/05/20 01:52:12;;;;;;;6.18;5.50;;;25.10;58.70;;;;;;5126906;27;20071;-66
2023/05/20 01:54:39;;;;;;;8.52;5.40;;;25.10;58.70;;;;;;5108670;27;20722;-66
2023/05/20 01:57:05;;;;;;;8.48;5.22;;;25.00;58.70;;;;;;5112247;27;20051;-66
2023/05/20 01:59:31;;;;;;;15.57;5.90;;;25.10;58.70;;;;;;5105017;28;20035;-66
2023/05/20 02:01:57;;;;;;;10.32;5.53;;;25.00;58.70;;;;;;5111443;28;20049;-66
2023/05/20 02:04:23;;;;;;;7.40;5.60;;;25.00;58.80;;;;;;5115211;27;20418;-66
2023/05/20 02:06:49;;;;;;;7.80;6.05;;;25.10;58.80;;;;;;5127536;27;20046;-66
2023/05/20 02:09:16;;;;;;;9.07;5.97;;;25.00;58.80;;;;;;5129773;28;20059;-66
2023/05/20 02:11:44;;;;;;;10.57;5.93;;;25.00;58.80;;;;;;5108679;28;20092;-66
2023/05/20 02:14:10;;;;;;;9.70;6.30;;;25.00;58.80;;;;;;5104507;28;20031;-66
2023/05/20 02:16:36;;;;;;;11.13;6.30;;;24.90;58.80;;;;;;5108948;28;20105;-66
2023/05/20 02:19:02;;;;;;;9.75;5.60;;;24.80;58.80;;;;;;5093703;28;20052;-67
2023/05/20 02:21:28;;;;;;;7.40;5.72;;;24.80;58.90;;;;;;5102049;28;20069;-66
2023/05/20 02:23:54;;;;;;;6.47;5.22;;;24.90;59.10;;;;;;5107600;28;20587;-66
2023/05/20 02:26:21;;;;;;;8.23;5.65;;;24.80;59.10;;;;;;5107071;28;20388;-66
2023/05/20 02:28:49;;;;;;;9.80;5.35;;;24.70;59.10;;;;;;5106103;28;20068;-66
2023/05/20 02:31:16;;;;;;;8.38;5.60;;;24.80;59.10;;;;;;5104100;28;20027;-66
2023/05/20 02:33:42;;;;;;;9.05;6.45;;;24.90;59.20;;;;;;5091351;28;20028;-66
2023/05/20 02:36:08;;;;;;;8.93;5.43;;;24.90;59.20;;;;;;5096950;28;20071;-66
2023/05/20 02:38:34;;;;;;;10.38;5.68;;;24.90;59.20;;;;;;5106145;28;20111;-66
2023/05/20 02:41:00;;;;;;;9.05;6.18;;;24.90;59.10;;;;;;5099968;28;20083;-66
2023/05/20 02:43:26;;;;;;;10.82;5.85;;;24.90;59.10;;;;;;5109734;28;20035;-65
2023/05/20 02:45:52;;;;;;;8.75;6.18;;;24.90;59.20;;;;;;5103104;28;20039;-66
2023/05/20 02:48:18;;;;;;;8.48;6.22;;;24.90;59.10;;;;;;5094507;28;20028;-66
2023/05/20 02:50:45;;;;;;;8.98;5.72;;;24.90;59.10;;;;;;5096139;28;20430;-66
2023/05/20 02:53:11;;;;;;;7.18;5.88;;;24.90;59.00;;;;;;5115224;27;20031;-66
2023/05/20 02:55:37;;;;;;;8.15;6.40;;;25.00;59.00;;;;;;5111217;28;20047;-66
2023/05/20 02:58:03;;;;;;;9.95;5.82;;;24.90;59.10;;;;;;5115066;28;20028;-66
2023/05/20 03:00:39;;;;;;;8.73;6.25;;;24.90;59.10;;;;;;5106462;28;20098;-66
2023/05/20 03:03:09;;;;;;;7.45;5.93;;;24.90;59.10;;;;;;5074825;28;20036;-66
2023/05/20 03:05:41;;;;;;;13.00;6.47;;;24.90;59.10;;;;;;5090439;28;20028;-66
2023/05/20 03:08:09;;;;;;;11.63;6.03;;;24.90;59.10;;;;;;5110591;28;20039;-66
2023/05/20 03:10:36;;;;;;;8.55;6.32;;;24.70;59.20;;;;;;5106018;28;20070;-66
2023/05/20 03:13:07;;;;;;;9.35;6.57;;;24.80;59.00;;;;;;5096063;28;20075;-66
2023/05/20 03:15:38;;;;;;;8.35;6.03;;;24.70;59.00;;;;;;5106622;28;20036;-66
2023/05/20 03:18:05;;;;;;;10.95;6.20;;;24.80;59.00;;;;;;5108073;28;20032;-66
2023/05/20 03:20:31;;;;;;;9.80;6.28;;;24.80;58.90;;;;;;5113026;28;20376;-66
2023/05/20 03:22:58;;;;;;;8.15;6.43;;;24.90;59.00;;;;;;5107638;28;20085;-66
2023/05/20 03:25:25;;;;;;;7.43;5.20;;;24.80;58.90;;;;;;5126634;27;20039;-66
2023/05/20 03:27:51;;;;;;;7.10;5.30;;;24.90;58.90;;;;;;5092590;28;20507;-66
2023/05/20 03:30:17;;;;;;;8.02;5.50;;;25.00;58.70;;;;;;5096781;28;20024;-66
2023/05/20 03:32:43;;;;;;;7.10;5.70;;;25.00;58.20;;;;;;5104119;28;20472;-65
2023/05/20 03:35:09;;;;;;;9.45;6.20;;;25.00;58.20;;;;;;5110394;28;20038;-66
2023/05/20 03:37:35;;;;;;;9.32;5.90;;;25.00;58.20;;;;;;5084421;28;20064;-66
2023/05/20 03:40:05;;;;;;;7.75;6.65;;;25.10;58.30;;;;;;5080931;28;20071;-66
2023/05/20 03:42:33;;;;;;;10.18;5.90;;;25.20;58.20;;;;;;5090146;28;20043;-66
2023/05/20 03:44:59;;;;;;;7.63;5.88;;;25.00;58.30;;;;;;5084233;28;20578;-66
2023/05/20 03:47:27;;;;;;;7.90;5.80;;;25.20;58.30;;;;;;5100058;28;20044;-66
2023/05/20 03:49:53;;;;;;;9.80;6.18;;;25.20;58.30;;;;;;5089523;28;20498;-66
2023/05/20 03:52:20;;;;;;;8.63;6.05;;;25.10;58.10;;;;;;5074474;28;20649;-66
2023/05/20 03:54:47;;;;;;;8.15;5.80;;;25.10;58.00;;;;;;5080617;28;20043;-66
2023/05/20 03:57:13;;;;;;;8.32;6.55;;;25.00;58.00;;;;;;5093101;28;20051;-66
2023/05/20 03:59:39;;;;;;;9.90;6.80;;;25.00;57.80;;;;;;5087223;28;20110;-66
2023/05/20 04:02:05;;;;;;;9.20;6.90;;;25.00;58.10;;;;;;5073762;28;20170;-65
2023/05/20 04:04:31;;;;;;;12.63;6.85;;;25.00;58.50;;;;;;5096874;28;20482;-66
2023/05/20 04:07:00;;;;;;;10.32;6.22;;;24.90;58.20;;;;;;5089475;28;20042;-66
2023/05/20 04:09:26;;;;;;;9.98;6.47;;;24.90;58.50;;;;;;5104501;28;20044;-66
2023/05/20 04:11:52;;;;;;;9.52;5.90;;;24.90;58.60;;;;;;5111866;28;20032;-66
2023/05/20 04:14:18;;;;;;;8.80;5.75;;;24.90;58.50;;;;;;5106859;28;20505;-66
2023/05/20 04:16:44;;;;;;;8.30;5.50;;;24.80;58.40;;;;;;5111046;28;20032;-66
2023/05/20 04:19:11;;;;;;;10.25;6.47;;;24.90;57.70;;;;;;5107436;28;20040;-66
2023/05/20 04:21:38;;;;;;;8.07;6.30;;;24.90;58.70;;;;;;5108774;28;20758;-66
2023/05/20 04:24:04;;;;;;;12.80;6.43;;;24.90;58.50;;;;;;5109695;28;20081;-66
2023/05/20 04:26:30;;;;;;;6.60;5.10;;;24.90;58.70;;;;;;5107892;28;20516;-66
2023/05/20 04:28:57;;;;;;;7.60;6.28;;;25.00;58.70;;;;;;5107456;28;20059;-66
2023/05/20 04:31:27;;;;;;;8.93;6.47;;;25.00;58.40;;;;;;5103636;28;20032;-66
2023/05/20 04:33:53;;;;;;;9.02;5.53;;;25.00;58.50;;;;;;5113056;28;20046;-66
2023/05/20 04:36:19;;;;;;;8.90;5.50;;;25.00;58.60;;;;;;5090863;28;20433;-66
2023/05/20 04:38:47;;;;;;;6.28;5.30;;;25.10;58.50;;;;;;5109898;28;20074;-66
2023/05/20 04:41:14;;;;;;;8.48;5.50;;;25.10;58.40;;;;;;5103021;28;20080;-66
2023/05/20 04:43:41;;;;;;;8.38;6.03;;;25.00;58.30;;;;;;5105648;28;20077;-65
2023/05/20 04:46:08;;;;;;;10.02;5.15;;;25.00;58.20;;;;;;5100676;28;20051;-66
2023/05/20 04:48:35;;;;;;;11.02;6.60;;;25.20;57.80;;;;;;5108876;28;20101;-66
2023/05/20 04:51:01;;;;;;;8.55;4.88;;;25.10;57.90;;;;;;5057269;28;20051;-66
2023/05/20 04:53:27;;;;;;;8.40;5.57;;;25.00;58.20;;;;;;5110182;28;20130;-66
2023/05/20 04:55:56;;;;;;;11.95;6.00;;;25.10;58.10;;;;;;5082012;28;20032;-66
2023/05/20 04:58:23;;;;;;;9.52;6.03;;;25.00;57.70;;;;;;5092796;28;20040;-66
2023/05/20 05:00:51;;;;;;;11.15;5.78;;;25.10;58.00;;;;;;5102210;28;20035;-66
2023/05/20 05:03:17;;;;;;;9.25;5.80;;;25.00;58.00;;;;;;5106085;28;20048;-66
2023/05/20 05:05:43;;;;;;;9.63;6.13;;;25.10;57.80;;;;;;5106998;28;20028;-66
2023/05/20 05:08:12;;;;;;;10.05;5.97;;;25.00;58.20;;;;;;5110107;28;20040;-66
2023/05/20 05:10:45;;;;;;;10.65;5.63;;;25.10;58.10;;;;;;5105065;28;20042;-66
2023/05/20 05:13:11;;;;;;;9.25;5.35;;;25.10;58.30;;;;;;5098690;28;20044;-66
2023/05/20 05:15:37;;;;;;;8.35;6.00;;;24.90;58.40;;;;;;5089182;28;20040;-66
2023/05/20 05:18:04;;;;;;;7.65;5.43;;;25.00;58.00;;;;;;5108641;28;20039;-66
2023/05/20 05:20:32;;;;;;;9.10;6.38;;;24.90;58.30;;;;;;5122146;27;20130;-66
2023/05/20 05:22:58;;;;;;;7.93;5.53;;;25.00;58.20;;;;;;5105041;28;20031;-66
2023/05/20 05:25:25;;;;;;;8.50;6.13;;;25.00;58.20;;;;;;5105978;28;20039;-66
2023/05/20 05:27:51;;;;;;;6.63;5.63;;;25.00;58.10;;;;;;5103238;28;20059;-66
2023/05/20 05:30:17;;;;;;;6.50;5.28;;;25.00;58.10;;;;;;5102892;28;20475;-66
2023/05/20 05:32:43;;;;;;;6.55;5.38;;;25.10;57.80;;;;;;5101862;28;20035;-66
2023/05/20 05:35:10;;;;;;;11.32;6.28;;;25.30;57.80;;;;;;5072573;28;20526;-66
2023/05/20 05:37:36;;;;;;;9.82;5.70;;;25.10;57.60;;;;;;5071770;28;20089;-66
2023/05/20 05:40:04;;;;;;;11.57;6.25;;;25.20;58.10;;;;;;5090426;28;20445;-66
2023/05/20 05:42:30;;;;;;;12.18;6.28;;;25.30;58.10;;;;;;5096235;28;20098;-66
2023/05/20 05:44:56;;;;;;;10.70;6.53;;;25.20;58.10;;;;;;5089507;28;20122;-66
2023/05/20 05:47:22;;;;;;;8.57;6.72;;;25.20;57.70;;;;;;5089617;28;20077;-66
2023/05/20 05:49:48;;;;;;;10.20;6.55;;;25.10;57.70;;;;;;5090152;28;20146;-66
2023/05/20 05:52:15;;;;;;;6.63;5.50;;;25.10;57.80;;;;;;5089245;28;20740;-66
2023/05/20 05:54:41;;;;;;;10.63;6.60;;;25.10;58.20;;;;;;5079847;28;20039;-66
2023/05/20 05:57:08;;;;;;;8.20;5.72;;;25.10;58.30;;;;;;5082763;28;20471;-67
2023/05/20 05:59:35;;;;;;;8.13;6.63;;;25.00;58.00;;;;;;5089311;28;20030;-66
2023/05/20 06:02:01;;;;;;;7.78;5.70;;;25.00;57.80;;;;;;5086540;28;20428;-66
2023/05/20 06:04:27;;;;;;;6.93;5.97;;;25.00;58.00;;;;;;5089258;28;20035;-66
2023/05/20 06:06:56;;;;;;;10.13;6.05;;;25.00;58.00;;;;;;5101956;28;20060;-66
2023/05/20 06:09:22;;;;;;;7.55;6.65;;;25.00;58.40;;;;;;5097534;28;20055;-66
2023/05/20 06:11:47;;;;;;;6.95;5.85;;;24.90;58.20;;;;;;5091157;28;20032;-65
2023/05/20 06:14:13;;;;;;;10.77;5.65;;;25.00;58.40;;;;;;5070890;28;20020;-66
2023/05/20 06:16:40;;;;;;;8.52;5.55;;;25.00;58.00;;;;;;5089725;28;20035;-65
2023/05/20 06:19:08;;;;;;;7.82;5.78;;;25.10;55.90;;;;;;5092187;28;20028;-65
2023/05/20 06:21:35;;;;;;;7.15;4.55;;;25.10;54.80;;;;;;5092377;28;20086;-65
2023/05/20 06:24:01;;;;;;;6.15;4.90;;;25.10;54.80;;;;;;5091951;28;20119;-65
2023/05/20 06:26:28;;;;;;;5.05;4.47;;;25.00;54.20;;;;;;5092407;28;20028;-64
2023/05/20 06:28:54;;;;;;;7.75;5.13;;;25.20;55.10;;;;;;5073849;28;20059;-66
2023/05/20 06:31:21;;;;;;;8.32;5.97;;;25.30;54.50;;;;;;5095944;28;20047;-65
2023/05/20 06:33:47;;;;;;;8.90;1.33;;;25.30;55.10;;;;;;5075378;28;20471;-65
2023/05/20 06:36:14;;;;;;;5.97;2.55;;;25.40;61.50;;;;;;5091967;28;20055;-65
2023/05/20 06:38:40;;;;;;;3.25;1.95;;;25.30;59.30;;;;;;5092220;28;20593;-65
2023/05/20 06:41:06;;;;;;;8.15;4.55;;;25.40;59.10;;;;;;5123710;27;20132;-65
2023/05/20 06:43:33;;;;;;;2.70;2.38;;;25.40;59.30;;;;;;5091453;28;20111;-66
2023/05/20 06:46:04;;;;;;;10.40;5.15;;;25.50;61.20;;;;;;5110558;27;20028;-65
2023/05/20 06:48:36;;;;;;;;;;;25.50;61.90;;;;;;5099590;28;20116;-65
2023/05/20 06:51:06;;;;;;;15.10;4.70;;;25.50;61.10;;;;;;5091246;28;19977;-65
2023/05/20 06:53:32;;;;;;;3.83;2.80;;;25.50;60.10;;;;;;5100114;28;20048;-65
2023/05/20 06:55:58;;;;;;;3.17;2.72;;;25.50;60.50;;;;;;5093111;28;20044;-64
2023/05/20 06:58:25;;;;;;;9.45;7.97;;;25.40;60.60;;;;;;5100088;28;20016;-64
2023/05/20 07:00:54;;;;;;;7.05;4.15;;;25.50;60.70;;;;;;5128043;27;20032;-65
2023/05/20 07:03:20;;;;;;;8.68;6.80;;;25.50;59.60;;;;;;5098623;28;20051;-67
2023/05/20 07:05:46;;;;;;;3.45;2.28;;;25.40;59.10;;;;;;5091080;28;20033;-69
2023/05/20 07:08:13;;;;;;;5.55;3.38;;;25.70;59.10;;;;;;5083024;28;20108;-67
2023/05/20 07:10:39;;;;;;;2.60;2.45;;;25.50;58.30;;;;;;5091505;28;20024;-67
2023/05/20 07:13:05;;;;;;;10.30;7.90;;;25.70;60.00;;;;;;5092336;28;20020;-68
2023/05/20 07:15:31;;;;;;;10.48;7.32;;;25.80;57.70;;;;;;5093321;28;20039;-69
2023/05/20 07:17:58;;;;;;;12.35;8.57;;;25.70;57.20;;;;;;5091761;28;20024;-68
2023/05/20 07:20:24;;;;;;;12.18;7.90;;;25.80;57.30;;;;;;5075716;28;20040;-68
2023/05/20 07:22:51;;;;;;;8.93;6.85;;;25.70;56.90;;;;;;5092388;28;20465;-67
2023/05/20 07:25:30;;;;;;;7.35;6.65;;;25.80;57.10;;;;;;5091976;28;20075;-68
2023/05/20 07:27:57;;;;;;;14.55;8.63;;;25.80;57.10;;;;;;5091766;28;20032;-69
2023/05/20 07:30:23;;;;;;;12.73;6.45;;;25.80;57.80;;;;;;5092872;28;20050;-68
2023/05/20 07:33:04;;;;;;;9.10;6.55;;;25.70;58.20;;;;;;5092029;28;20039;-66
2023/05/20 07:35:31;;;;;;;6.78;4.97;;;25.80;57.80;;;;;;5092421;28;20032;-67
2023/05/20 07:37:57;;;;;;;6.40;2.95;;;25.80;57.50;;;;;;5092385;28;20124;-67
2023/05/20 07:40:23;;;;;;;1.85;1.67;;;25.90;57.50;;;;;;5091887;28;20039;-66
2023/05/20 07:42:49;;;;;;;14.60;5.32;;;25.90;57.70;;;;;;5081946;28;20020;-66
2023/05/20 07:45:15;;;;;;;6.95;5.72;;;26.10;57.80;;;;;;5072375;28;20037;-66
2023/05/20 07:47:41;;;;;;;9.93;7.13;;;26.00;58.90;;;;;;5075601;28;20499;-65
2023/05/20 07:50:08;;;;;;;11.50;6.35;;;26.20;59.80;;;;;;5092477;28;20043;-64
2023/05/20 07:52:36;;;;;;;8.55;7.25;;;26.20;57.40;;;;;;5075693;28;20085;-65
2023/05/20 07:55:02;;;;;;;12.13;8.55;;;26.20;56.80;;;;;;5092053;28;20039;-64
2023/05/20 07:57:29;;;;;;;8.40;6.75;;;26.20;55.90;;;;;;5069571;28;20111;-65
2023/05/20 07:59:55;;;;;;;6.95;4.40;;;26.10;56.40;;;;;;5089314;28;20036;-68
2023/05/20 08:02:21;;;;;;;8.65;6.32;;;26.20;56.60;;;;;;5073451;28;20094;-67
2023/05/20 08:04:48;;;;;;;15.43;6.15;;;26.30;56.50;;;;;;5107801;27;20036;-68
2023/05/20 08:07:14;;;;;;;10.55;7.57;;;26.20;55.90;;;;;;5083691;28;20115;-67
2023/05/20 08:09:47;;;;;;;7.95;6.47;;;26.10;56.10;;;;;;5091325;28;20386;-69
2023/05/20 08:12:13;;;;;;;14.02;6.93;;;26.20;55.80;;;;;;5089579;28;20032;-67
2023/05/20 08:14:40;;;;;;;16.30;7.28;;;26.20;55.60;;;;;;5100936;27;20443;-69
2023/05/20 08:17:07;;;;;;;12.27;2.95;;;26.30;55.30;;;;;;5093243;28;20051;-67
2023/05/20 08:19:33;;;;;;;9.48;6.95;;;26.20;55.00;;;;;;5104388;28;20467;-67
2023/05/20 08:21:59;;;;;;;8.40;7.30;;;26.10;54.90;;;;;;5091819;28;20059;-67
2023/05/20 08:24:25;;;;;;;12.38;7.40;;;26.20;55.00;;;;;;5087479;28;20043;-68
2023/05/20 08:26:52;;;;;;;7.50;6.78;;;26.20;54.80;;;;;;5087584;28;20063;-67
2023/05/20 08:29:21;;;;;;;11.35;7.60;;;26.20;54.70;;;;;;5087690;28;20067;-65
2023/05/20 08:31:47;;;;;;;7.90;6.32;;;26.10;54.40;;;;;;5069365;28;21780;-65
2023/05/20 08:34:13;;;;;;;10.88;6.65;;;26.20;54.70;;;;;;5071798;28;20094;-65
2023/05/20 08:36:39;;;;;;;8.63;7.00;;;26.20;54.30;;;;;;5073081;28;20058;-65
2023/05/20 08:39:05;;;;;;;8.20;7.35;;;26.20;54.60;;;;;;5072849;28;20448;-65
2023/05/20 08:41:31;;;;;;;11.20;6.60;;;26.10;54.60;;;;;;5072005;28;20051;-65
2023/05/20 08:44:00;;;;;;;12.02;8.02;;;26.40;54.60;;;;;;5073210;28;20052;-65
2023/05/20 08:46:26;;;;;;;11.38;7.53;;;26.10;54.20;;;;;;5073027;28;20047;-65
2023/05/20 08:48:54;;;;;;;8.43;7.10;;;26.20;54.60;;;;;;5072139;28;20126;-65
2023/05/20 08:51:22;;;;;;;9.18;7.63;;;26.20;54.10;;;;;;5089883;28;20478;-65
2023/05/20 08:53:49;;;;;;;9.18;7.63;;;26.20;54.30;;;;;;5089975;28;20071;-63
2023/05/20 08:56:16;;;;;;;7.75;6.20;;;26.20;54.30;;;;;;5070991;28;20047;-67
2023/05/20 08:58:43;;;;;;;9.02;7.57;;;26.20;54.50;;;;;;5088337;28;20050;-66
2023/05/20 09:01:09;;;;;;;7.45;6.28;;;26.10;54.40;;;;;;5091983;28;20041;-65
2023/05/20 09:03:35;;;;;;;10.32;7.13;;;26.20;54.50;;;;;;5092268;28;20034;-65
2023/05/20 09:06:08;;;;;;;9.85;7.50;;;26.10;54.60;;;;;;5092242;28;20055;-65
2023/05/20 09:08:35;;;;;;;9.07;6.70;;;26.10;54.50;;;;;;5092075;28;20118;-65
2023/05/20 09:11:01;;;;;;;10.75;7.07;;;26.10;54.80;;;;;;5091074;28;20411;-65
2023/05/20 09:13:31;;;;;;;10.68;6.78;;;26.10;54.80;;;;;;5092020;28;20114;-63
2023/05/20 09:16:00;;;;;;;10.77;7.45;;;26.00;54.90;;;;;;5090030;28;20085;-65
2023/05/20 09:18:26;;;;;;;8.27;6.32;;;26.00;55.00;;;;;;5091811;28;20479;-65
2023/05/20 09:20:52;;;;;;;6.30;5.60;;;26.00;54.90;;;;;;5092065;28;20104;-65
2023/05/20 09:23:22;;;;;;;9.20;5.95;;;25.90;54.40;;;;;;5092309;28;20119;-65
2023/05/20 09:25:51;;;;;;;10.00;6.93;;;26.00;54.90;;;;;;5090742;28;20468;-65
2023/05/20 09:28:23;;;;;;;12.77;6.60;;;25.90;54.40;;;;;;5091743;28;20039;-65
2023/05/20 09:30:52;;;;;;;10.50;7.10;;;26.00;55.00;;;;;;5091756;28;20043;-65
2023/05/20 09:33:18;;;;;;;9.73;7.47;;;26.00;55.00;;;;;;5090665;28;20032;-65
2023/05/20 09:35:45;;;;;;;9.60;5.85;;;26.00;55.00;;;;;;5090939;28;20184;-65
2023/05/20 09:38:14;;;;;;;13.32;6.47;;;25.90;54.50;;;;;;5086105;28;20073;-65
2023/05/20 09:40:43;;;;;;;6.88;6.07;;;26.00;55.10;;;;;;5086681;28;20437;-65
2023/05/20 09:43:10;;;;;;;8.43;4.88;;;26.00;55.00;;;;;;5091290;28;20031;-65
2023/05/20 09:45:37;;;;;;;8.05;5.95;;;26.00;55.10;;;;;;5094099;28;20051;-70
2023/05/20 09:48:07;;;;;;;8.55;6.25;;;26.00;54.80;;;;;;5089897;28;20490;-66
2023/05/20 09:50:34;;;;;;;7.25;6.45;;;26.00;55.40;;;;;;5091041;28;20107;-66
2023/05/20 09:53:05;;;;;;;9.40;6.68;;;26.00;55.90;;;;;;5088519;28;20071;-65
2023/05/20 09:55:32;;;;;;;7.07;6.18;;;26.00;56.20;;;;;;5086147;28;20047;-66
2023/05/20 09:58:01;;;;;;;7.88;6.20;;;26.00;56.10;;;;;;5088789;28;20040;-66
2023/05/20 10:00:27;;;;;;;11.73;6.32;;;26.00;56.50;;;;;;5088867;28;20543;-66
2023/05/20 10:02:54;;;;;;;8.88;6.75;;;26.00;56.40;;;;;;5089786;28;20060;-66
2023/05/20 10:05:32;;;;;;;10.48;5.78;;;26.00;56.30;;;;;;5086111;28;20861;-65
2023/05/20 10:08:31;;;;;;;6.20;5.30;;;25.90;56.20;;;;;;5071717;28;20048;-65
2023/05/20 10:11:05;;;;;;;6.93;5.70;;;25.90;57.70;;;;;;5087940;28;20032;-65
2023/05/20 10:13:40;;;;;;;7.70;6.15;;;25.90;59.00;;;;;;5088728;28;20115;-66
2023/05/20 10:16:33;;;;;;;9.27;6.13;;;26.00;58.70;;;;;;5087520;28;20043;-65
2023/05/20 10:19:26;;;;;;;8.90;6.63;;;26.00;58.00;;;;;;5087578;28;20040;-65
2023/05/20 10:21:56;;;;;;;9.85;7.70;;;26.00;57.30;;;;;;5084204;28;20124;-62
2023/05/20 10:24:31;;;;;;;8.85;6.40;;;26.00;59.70;;;;;;5086277;28;20480;-64
2023/05/20 10:27:00;;;;;;;14.65;6.82;;;26.10;58.50;;;;;;5085550;28;20052;-65
2023/05/20 10:29:26;;;;;;;8.85;7.40;;;26.50;59.50;;;;;;5070835;28;20382;-64
2023/05/20 10:31:52;;;;;;;9.30;6.85;;;26.60;59.40;;;;;;5085122;28;20566;-65
2023/05/20 10:34:20;;;;;;;12.10;7.18;;;26.70;58.50;;;;;;5087798;28;20024;-65
2023/05/20 10:36:57;;;;;;;11.80;7.65;;;26.80;60.10;;;;;;5086425;28;20044;-65
2023/05/20 10:39:34;;;;;;;7.50;5.82;;;26.90;57.00;;;;;;5104273;28;20355;-66
2023/05/20 10:42:07;;;;;;;12.18;6.35;;;26.70;56.20;;;;;;5091214;28;20059;-66
2023/05/20 10:44:41;;;;;;;10.93;6.32;;;26.60;57.50;;;;;;5093282;28;20028;-64
2023/05/20 10:47:07;;;;;;;12.52;6.75;;;26.70;60.70;;;;;;5100252;28;20047;-66
2023/05/20 10:49:37;;;;;;;8.95;6.47;;;27.00;64.90;;;;;;5105214;28;20046;-65
2023/05/20 10:52:06;;;;;;;10.75;8.95;;;27.40;67.80;;;;;;5075739;28;20028;-66
2023/05/20 10:54:36;;;;;;;8.18;6.57;;;27.70;66.40;;;;;;5089223;28;20035;-67
2023/05/20 10:57:09;;;;;;;7.32;6.30;;;27.80;60.80;;;;;;5088068;28;20044;-66
2023/05/20 10:59:36;;;;;;;9.95;6.35;;;27.80;60.00;;;;;;5087123;28;20059;-65
2023/05/20 11:02:02;;;;;;;8.38;6.93;;;27.60;63.20;;;;;;5090688;28;20028;-66
2023/05/20 11:04:29;;;;;;;9.85;6.75;;;27.70;66.10;;;;;;5093032;28;20035;-67
2023/05/20 11:06:57;;;;;;;8.63;6.70;;;27.80;62.70;;;;;;5089048;28;20089;-67
2023/05/20 11:09:23;;;;;;;11.10;6.38;;;27.80;59.50;;;;;;5092457;28;20100;-66
2023/05/20 11:11:51;;;;;;;10.75;6.18;;;27.70;58.90;;;;;;5094489;28;20480;-67
2023/05/20 11:14:18;;;;;;;7.63;5.68;;;27.90;61.00;;;;;;5094060;28;20060;-67
2023/05/20 11:16:45;;;;;;;7.10;6.05;;;27.80;63.30;;;;;;5093244;28;20039;-65
2023/05/20 11:19:15;;;;;;;9.77;7.93;;;27.90;61.70;;;;;;5092758;28;20035;-66
2023/05/20 11:21:47;;;;;;;8.10;7.15;;;28.00;65.60;;;;;;5093494;28;20201;-66
2023/05/20 11:24:21;;;;;;;11.38;6.07;;;28.10;52.30;;;;;;5072224;28;20093;-67
2023/05/20 11:26:47;;;;;;;11.23;6.35;;;28.00;52.90;;;;;;5090585;28;20028;-67
2023/05/20 11:29:13;;;;;;;11.80;5.60;;;27.80;55.90;;;;;;5082947;28;20020;-66
2023/05/20 11:31:39;;;;;;;6.82;5.15;;;27.70;56.30;;;;;;5094003;28;20527;-67
2023/05/20 11:34:05;;;;;;;5.88;4.55;;;27.70;56.60;;;;;;5092547;28;20173;-67
2023/05/20 11:36:31;;;;;;;7.93;4.70;;;27.60;56.60;;;;;;5093704;28;20119;-66
2023/05/20 11:38:57;;;;;;;7.32;6.00;;;27.50;56.70;;;;;;5093425;28;20400;-66
2023/05/20 11:41:25;;;;;;;6.85;5.07;;;27.50;56.90;;;;;;5091461;28;20598;-67
2023/05/20 11:43:57;;;;;;;6.85;4.97;;;27.50;56.80;;;;;;5090917;28;20115;-67
2023/05/20 11:46:23;;;;;;;7.38;5.25;;;27.50;56.90;;;;;;5102311;28;20024;-66
2023/05/20 11:48:56;;;;;;;6.53;4.72;;;27.30;57.10;;;;;;5113821;28;20035;-67
2023/05/20 11:51:29;;;;;;;7.65;4.97;;;27.30;57.20;;;;;;5119941;27;20044;-68
2023/05/20 11:54:06;;;;;;;9.38;5.28;;;27.40;57.30;;;;;;5092187;28;20039;-67
2023/05/20 11:56:36;;;;;;;3.83;3.45;;;27.30;57.50;;;;;;5085078;28;20027;-70
2023/05/20 11:59:07;;;;;;;7.22;4.90;;;27.30;57.80;;;;;;5094391;28;20042;-67
2023/05/20 12:01:43;;;;;;;6.47;4.35;;;27.20;57.60;;;;;;5087664;28;20024;-68
2023/05/20 12:04:09;;;;;;;6.22;4.50;;;27.20;57.60;;;;;;5093018;28;20044;-68
2023/05/20 12:06:38;;;;;;;9.10;5.22;;;27.20;57.60;;;;;;5093498;28;20020;-68
2023/05/20 12:09:06;;;;;;;7.15;4.68;;;27.10;57.50;;;;;;5092608;28;20078;-67
2023/05/20 12:11:36;;;;;;;4.93;4.28;;;27.10;57.50;;;;;;5088010;28;20035;-67
2023/05/20 12:14:03;;;;;;;9.38;5.07;;;27.10;57.30;;;;;;5093257;28;20044;-68
2023/05/20 12:16:32;;;;;;;5.32;4.20;;;27.10;57.20;;;;;;5093147;28;20059;-68
2023/05/20 12:18:58;;;;;;;7.28;5.47;;;27.10;57.20;;;;;;5093079;28;20027;-67
2023/05/20 12:21:24;;;;;;;14.25;5.88;;;26.90;56.60;;;;;;5091753;28;20069;-68
2023/05/20 12:23:56;;;;;;;10.95;4.35;;;26.90;56.50;;;;;;5090822;28;20524;-68
2023/05/20 12:26:26;;;;;;;7.43;4.45;;;26.90;56.50;;;;;;5087205;28;20032;-68
2023/05/20 12:28:52;;;;;;;7.03;4.85;;;26.90;56.50;;;;;;5093013;28;20059;-68
2023/05/20 12:31:18;;;;;;;8.57;4.65;;;27.00;57.10;;;;;;5091329;28;20036;-68
2023/05/20 12:33:45;;;;;;;7.05;4.40;;;27.00;57.10;;;;;;5082234;28;20032;-67
2023/05/20 12:36:12;;;;;;;10.45;4.78;;;26.90;56.50;;;;;;5068593;28;20040;-68
2023/05/20 12:38:38;;;;;;;4.32;3.90;;;26.80;56.50;;;;;;5091700;28;20028;-68
2023/05/20 12:41:04;;;;;;;7.90;4.50;;;26.80;56.50;;;;;;5089433;28;20034;-68
2023/05/20 12:43:30;;;;;;;7.13;4.70;;;26.80;56.50;;;;;;5092623;28;20539;-67
2023/05/20 12:45:56;;;;;;;8.18;5.05;;;26.80;56.50;;;;;;5088499;28;20043;-68